Time;durP1;ratioP1;P1;durP2;ratioP2;P2;SDS_P1;SDS_P2;PMS_P1;PMS_P2;Temp;Humidity;BMP_temperature;BMP_pressure;BME280_temperature;BME280_humidity;BME280_pressure;Samples;Min_cycle;Max_cycle;Signal;HPM_P1;HPM_P2
2022/08/21 00:00:08;;;;;;;;;;;19.00;99.90;;;;;;5075520;28;19909;-79
2022/08/21 00:02:34;;;;;;;;;;;18.90;99.90;;;;;;5075461;28;19909;-80
2022/08/21 00:05:00;;;;;;;;;;;18.90;99.90;;;;;;5075521;28;19908;-80
2022/08/21 00:07:25;;;;;;;;;;;18.70;99.90;;;;;;5076019;28;19908;-79
2022/08/21 00:09:51;;;;;;;;;;;18.30;99.90;;;;;;5075699;28;19908;-80
2022/08/21 00:12:17;;;;;;;;;;;18.00;99.90;;;;;;5076149;28;20004;-80
2022/08/21 00:14:42;;;;;;;;;;;17.90;99.90;;;;;;5076364;28;19909;-79
2022/08/21 00:17:08;;;;;;;;;;;17.80;99.90;;;;;;5075463;28;19919;-79
2022/08/21 00:19:33;;;;;;;;;;;17.80;99.90;;;;;;5075991;28;19912;-80
2022/08/21 00:21:59;;;;;;;;;;;17.90;99.90;;;;;;5075380;28;19912;-79
2022/08/21 00:24:25;;;;;;;;;;;18.20;99.90;;;;;;5075807;28;19909;-79
2022/08/21 00:26:51;;;;;;;;;;;18.40;99.90;;;;;;5075610;28;19908;-80
2022/08/21 00:29:16;;;;;;;;;;;18.50;99.90;;;;;;5075158;28;19954;-80
2022/08/21 00:31:42;;;;;;;;;;;18.50;99.90;;;;;;5075098;28;19908;-79
2022/08/21 00:34:08;;;;;;;;;;;18.50;99.90;;;;;;5075572;28;19963;-80
2022/08/21 00:36:34;;;;;;;;;;;18.40;99.90;;;;;;5075094;28;19909;-79
2022/08/21 00:39:01;;;;;;;;;;;18.40;99.90;;;;;;5075064;28;19956;-79
2022/08/21 00:41:27;;;;;;;;;;;18.40;99.90;;;;;;5075626;28;20303;-79
2022/08/21 00:43:53;;;;;;;;;;;18.20;99.90;;;;;;5074771;28;20299;-80
2022/08/21 00:46:19;;;;;;;;;;;18.10;99.90;;;;;;5074816;28;19920;-79
2022/08/21 00:48:44;;;;;;;;;;;17.70;99.90;;;;;;5074703;28;19915;-80
2022/08/21 00:51:13;;;;;;;;;;;17.40;99.90;;;;;;5075352;28;20284;-79
2022/08/21 00:53:40;;;;;;;;;;;17.60;99.90;;;;;;5074731;28;20445;-79
2022/08/21 00:56:06;;;;;;;;;;;17.90;99.90;;;;;;5075096;28;19909;-79
2022/08/21 00:58:35;;;;;;;;;;;18.00;99.90;;;;;;5056590;28;19913;-80
2022/08/21 01:01:01;;;;;;;;;;;18.10;99.90;;;;;;5075227;28;19916;-80
2022/08/21 01:03:27;;;;;;;;;;;18.00;99.90;;;;;;5079362;28;19908;-79
2022/08/21 01:05:53;;;;;;;;;;;18.00;99.90;;;;;;5061553;28;20257;-79
2022/08/21 01:08:19;;;;;;;;;;;18.10;99.90;;;;;;5079265;28;19909;-79
2022/08/21 01:10:46;;;;;;;;;;;18.10;99.90;;;;;;5079141;28;20000;-80
2022/08/21 01:13:13;;;;;;;;;;;18.10;99.90;;;;;;5060839;28;19916;-79
2022/08/21 01:15:42;;;;;;;;;;;17.80;99.90;;;;;;5078926;28;20002;-79
2022/08/21 01:18:09;;;;;;;;;;;17.50;99.90;;;;;;5078496;28;19942;-80
2022/08/21 01:20:35;;;;;;;;;;;17.60;99.90;;;;;;5078775;28;19909;-80
2022/08/21 01:23:01;;;;;;;;;;;17.60;99.90;;;;;;5078628;28;20377;-80
2022/08/21 01:25:27;;;;;;;;;;;17.60;99.90;;;;;;5078439;28;19987;-79
2022/08/21 01:27:52;;;;;;;;;;;17.60;99.90;;;;;;5078083;28;19936;-79
2022/08/21 01:30:20;;;;;;;;;;;17.50;99.90;;;;;;5078562;28;20373;-80
2022/08/21 01:32:46;;;;;;;;;;;17.70;99.90;;;;;;5078888;28;19908;-80
2022/08/21 01:35:13;;;;;;;;;;;17.70;99.90;;;;;;5078340;28;19988;-80
2022/08/21 01:37:38;;;;;;;;;;;17.80;99.90;;;;;;5078633;28;19912;-78
2022/08/21 01:40:05;;;;;;;;;;;17.80;99.90;;;;;;5078035;28;19919;-81
2022/08/21 01:42:31;;;;;;;;;;;17.60;99.90;;;;;;5078210;28;19909;-78
2022/08/21 01:44:56;;;;;;;;;;;17.70;99.90;;;;;;5077815;28;19932;-79
2022/08/21 01:47:22;;;;;;;;;;;17.70;99.90;;;;;;5078367;28;19955;-80
2022/08/21 01:49:48;;;;;;;;;;;17.60;99.90;;;;;;5077745;28;19961;-78
2022/08/21 01:52:13;;;;;;;;;;;17.70;99.90;;;;;;5077847;28;19908;-79
2022/08/21 01:54:39;;;;;;;;;;;17.70;99.90;;;;;;5077853;28;20400;-79
2022/08/21 01:57:05;;;;;;;;;;;17.60;99.90;;;;;;5077657;28;19923;-80
2022/08/21 01:59:31;;;;;;;;;;;17.70;99.90;;;;;;5078064;28;19908;-80
2022/08/21 02:01:57;;;;;;;;;;;17.60;99.90;;;;;;5078293;28;19912;-80
2022/08/21 02:04:23;;;;;;;;;;;17.50;99.90;;;;;;5078116;28;19908;-79
2022/08/21 02:06:48;;;;;;;;;;;17.40;99.90;;;;;;5077739;28;20430;-78
2022/08/21 02:09:14;;;;;;;;;;;17.40;99.90;;;;;;5077824;28;19912;-79
2022/08/21 02:11:41;;;;;;;;;;;17.50;99.90;;;;;;5077257;28;19912;-79
2022/08/21 02:14:11;;;;;;;;;;;17.40;99.90;;;;;;5077223;28;19908;-80
2022/08/21 02:16:37;;;;;;;;;;;17.40;99.90;;;;;;5078351;28;20264;-79
2022/08/21 02:19:03;;;;;;;;;;;17.30;99.90;;;;;;5077260;28;19913;-79
2022/08/21 02:21:29;;;;;;;;;;;17.40;99.90;;;;;;5077447;28;19916;-78
2022/08/21 02:23:55;;;;;;;;;;;17.40;99.90;;;;;;5077648;28;19909;-80
2022/08/21 02:26:20;;;;;;;;;;;17.40;99.90;;;;;;5077639;28;20317;-79
2022/08/21 02:28:46;;;;;;;;;;;17.40;99.90;;;;;;5077724;28;19978;-79
2022/08/21 02:31:12;;;;;;;;;;;17.30;99.90;;;;;;5077193;28;19909;-78
2022/08/21 02:33:39;;;;;;;;;;;17.30;99.90;;;;;;5077351;28;20299;-80
2022/08/21 02:36:05;;;;;;;;;;;17.30;99.90;;;;;;5077218;28;19927;-79
2022/08/21 02:38:38;;;;;;;;;;;17.20;99.90;;;;;;5077491;28;20284;-79
2022/08/21 02:41:04;;;;;;;;;;;17.10;99.90;;;;;;5077542;28;19935;-79
2022/08/21 02:43:30;;;;;;;;;;;17.10;99.90;;;;;;5059023;28;19923;-79
2022/08/21 02:45:56;;;;;;;;;;;17.10;99.90;;;;;;5076965;28;19909;-79
2022/08/21 02:48:23;;;;;;;;;;;17.10;99.90;;;;;;5077403;28;19920;-78
2022/08/21 02:50:54;;;;;;;;;;;17.10;99.90;;;;;;5077315;28;19916;-79
2022/08/21 02:53:20;;;;;;;;;;;17.20;99.90;;;;;;5077244;28;19958;-81
2022/08/21 02:55:47;;;;;;;;;;;17.20;99.90;;;;;;5077206;28;19962;-80
2022/08/21 02:58:13;;;;;;;;;;;17.20;99.90;;;;;;5077069;28;20358;-81
2022/08/21 03:00:39;;;;;;;;;;;17.00;99.90;;;;;;5059175;28;20253;-80
2022/08/21 03:03:05;;;;;;;;;;;17.00;99.90;;;;;;5076890;28;19913;-79
2022/08/21 03:05:31;;;;;;;;;;;17.00;99.90;;;;;;5077032;28;19935;-79
2022/08/21 03:07:58;;;;;;;;;;;17.10;99.90;;;;;;5076994;28;19915;-79
2022/08/21 03:10:24;;;;;;;;;;;17.00;99.90;;;;;;5076566;28;19909;-79
2022/08/21 03:12:50;;;;;;;;;;;16.80;99.90;;;;;;5076902;28;19951;-79
2022/08/21 03:15:17;;;;;;;;;;;16.90;99.90;;;;;;5076831;28;19909;-79
2022/08/21 03:17:43;;;;;;;;;;;17.10;99.90;;;;;;5076450;28;19962;-80
2022/08/21 03:20:09;;;;;;;;;;;17.20;99.90;;;;;;5076558;28;19908;-80
2022/08/21 03:22:35;;;;;;;;;;;16.90;99.90;;;;;;5076749;28;20264;-80
2022/08/21 03:25:00;;;;;;;;;;;16.70;99.90;;;;;;5075880;28;19923;-78
2022/08/21 03:27:27;;;;;;;;;;;16.80;99.90;;;;;;5076475;28;19917;-78
2022/08/21 03:29:54;;;;;;;;;;;16.80;99.90;;;;;;5076852;28;19915;-78
2022/08/21 03:32:20;;;;;;;;;;;16.50;99.90;;;;;;5076480;28;19908;-80
2022/08/21 03:34:45;;;;;;;;;;;16.40;99.90;;;;;;5075830;28;19970;-79
2022/08/21 03:37:11;;;;;;;;;;;16.50;99.90;;;;;;5076199;28;19962;-80
2022/08/21 03:39:37;;;;;;;;;;;16.80;99.90;;;;;;5076232;28;19909;-80
2022/08/21 03:42:02;;;;;;;;;;;17.00;99.90;;;;;;5075805;28;19958;-81
2022/08/21 03:44:28;;;;;;;;;;;17.00;99.90;;;;;;5075379;28;19909;-80
2022/08/21 03:46:54;;;;;;;;;;;16.90;99.90;;;;;;5076416;28;19924;-80
2022/08/21 03:49:20;;;;;;;;;;;16.50;99.90;;;;;;5076338;28;19909;-80
2022/08/21 03:51:46;;;;;;;;;;;16.20;99.90;;;;;;5076107;28;19915;-81
2022/08/21 03:54:11;;;;;;;;;;;16.00;99.90;;;;;;5075610;28;19909;-79
2022/08/21 03:56:39;;;;;;;;;;;16.10;99.90;;;;;;5075681;28;20050;-78
2022/08/21 03:59:04;;;;;;;;;;;16.50;99.90;;;;;;5075560;28;20376;-80
2022/08/21 04:01:30;;;;;;;;;;;16.90;99.90;;;;;;5075553;28;19933;-80
2022/08/21 04:03:56;;;;;;;;;;;17.00;99.90;;;;;;5075466;28;19958;-78
2022/08/21 04:06:21;;;;;;;;;;;17.10;99.90;;;;;;5075683;28;19957;-79
2022/08/21 04:08:47;;;;;;;;;;;17.10;99.90;;;;;;5075453;28;20459;-79
2022/08/21 04:11:13;;;;;;;;;;;17.10;99.90;;;;;;5075930;28;19958;-79
2022/08/21 04:13:39;;;;;;;;;;;16.70;99.90;;;;;;5075130;28;19908;-78
2022/08/21 04:16:05;;;;;;;;;;;16.50;99.90;;;;;;5075714;28;19952;-81
2022/08/21 04:18:31;;;;;;;;;;;16.60;99.90;;;;;;5075360;28;20288;-80
2022/08/21 04:20:57;;;;;;;;;;;16.70;99.90;;;;;;5075467;28;19932;-78
2022/08/21 04:23:23;;;;;;;;;;;16.80;99.90;;;;;;5075197;28;19955;-78
2022/08/21 04:25:49;;;;;;;;;;;16.90;99.90;;;;;;5075560;28;19919;-79
2022/08/21 04:28:15;;;;;;;;;;;16.90;99.90;;;;;;5075142;28;19913;-80
2022/08/21 04:30:40;;;;;;;;;;;17.00;99.90;;;;;;5075924;28;19974;-80
2022/08/21 04:33:06;;;;;;;;;;;17.00;99.90;;;;;;5075530;28;20271;-80
2022/08/21 04:35:31;;;;;;;;;;;17.10;99.90;;;;;;5075304;28;19909;-79
2022/08/21 04:37:57;;;;;;;;;;;17.00;99.90;;;;;;5075098;28;20210;-81
2022/08/21 04:40:25;;;;;;;;;;;17.10;99.90;;;;;;5075559;28;20334;-79
2022/08/21 04:42:54;;;;;;;;;;;17.10;99.90;;;;;;5075413;28;20288;-78
2022/08/21 04:45:21;;;;;;;;;;;17.10;99.90;;;;;;5074925;28;19916;-78
2022/08/21 04:47:54;;;;;;;;;;;17.20;99.90;;;;;;5074643;28;19974;-79
2022/08/21 04:50:22;;;;;;;;;;;17.20;99.90;;;;;;5074704;28;19970;-78
2022/08/21 04:52:47;;;;;;;;;;;17.20;99.90;;;;;;5074966;28;19935;-78
2022/08/21 04:55:14;;;;;;;;;;;17.10;99.90;;;;;;5074726;28;20373;-78
2022/08/21 04:57:40;;;;;;;;;;;17.20;99.90;;;;;;5074594;28;19954;-80
2022/08/21 05:00:06;;;;;;;;;;;17.20;99.90;;;;;;5074401;28;19908;-79
2022/08/21 05:02:32;;;;;;;;;;;17.20;99.90;;;;;;5074425;28;19909;-79
2022/08/21 05:04:58;;;;;;;;;;;17.20;99.90;;;;;;5074369;28;19912;-78
2022/08/21 05:07:27;;;;;;;;;;;17.00;99.90;;;;;;5074320;28;20258;-78
2022/08/21 05:09:53;;;;;;;;;;;16.60;99.90;;;;;;5056218;28;19917;-80
2022/08/21 05:12:19;;;;;;;;;;;16.30;99.90;;;;;;5074474;28;19916;-79
2022/08/21 05:14:44;;;;;;;;;;;16.40;99.90;;;;;;5074183;28;19908;-80
2022/08/21 05:17:10;;;;;;;;;;;16.70;99.90;;;;;;5074616;28;19909;-78
2022/08/21 05:19:35;;;;;;;;;;;17.00;99.90;;;;;;5074416;28;19928;-79
2022/08/21 05:22:01;;;;;;;;;;;17.20;99.90;;;;;;5074293;28;20403;-78
2022/08/21 05:24:27;;;;;;;;;;;17.30;99.90;;;;;;5074445;28;19951;-79
2022/08/21 05:26:53;;;;;;;;;;;17.30;99.90;;;;;;5073881;28;19999;-79
2022/08/21 05:29:18;;;;;;;;;;;17.30;99.90;;;;;;5055893;28;19908;-80
2022/08/21 05:31:45;;;;;;;;;;;17.30;99.90;;;;;;5074158;28;19931;-81
2022/08/21 05:34:11;;;;;;;;;;;17.20;99.90;;;;;;5056138;28;19909;-80
2022/08/21 05:36:36;;;;;;;;;;;17.20;99.90;;;;;;5055727;28;19909;-79
2022/08/21 05:39:02;;;;;;;;;;;17.30;99.90;;;;;;5074465;28;19908;-81
2022/08/21 05:41:28;;;;;;;;;;;17.30;99.90;;;;;;5074066;28;19913;-81
2022/08/21 05:43:54;;;;;;;;;;;17.30;99.90;;;;;;5073612;28;19908;-80
2022/08/21 05:46:19;;;;;;;;;;;17.30;99.90;;;;;;5073713;28;20436;-80
2022/08/21 05:48:45;;;;;;;;;;;17.40;99.90;;;;;;5077226;28;19912;-79
2022/08/21 05:51:12;;;;;;;;;;;17.50;99.90;;;;;;5076951;28;19959;-78
2022/08/21 05:53:37;;;;;;;;;;;17.50;99.90;;;;;;5077321;28;19915;-81
2022/08/21 05:56:03;;;;;;;;;;;17.50;99.90;;;;;;5077169;28;20381;-79
2022/08/21 05:58:30;;;;;;;;;;;17.60;99.90;;;;;;5076584;28;19999;-82
2022/08/21 06:00:55;;;;;;;;;;;17.70;99.90;;;;;;5076832;28;19962;-80
2022/08/21 06:03:30;;;;;;;;;;;17.40;99.90;;;;;;5077266;28;19909;-80
2022/08/21 06:05:55;;;;;;;;;;;17.50;99.90;;;;;;5077208;28;19909;-81
2022/08/21 06:08:21;;;;;;;;;;;17.80;99.90;;;;;;5076584;28;19912;-80
2022/08/21 06:10:48;;;;;;;;;;;17.90;99.90;;;;;;5076601;28;20292;-79
2022/08/21 06:13:14;;;;;;;;;;;18.10;99.90;;;;;;5058619;28;19909;-80
2022/08/21 06:15:40;;;;;;;;;;;18.20;99.90;;;;;;5076742;28;19915;-78
2022/08/21 06:18:06;;;;;;;;;;;18.30;99.90;;;;;;5076608;28;19908;-80
2022/08/21 06:20:32;;;;;;;;;;;18.50;99.90;;;;;;5076805;28;19908;-79
2022/08/21 06:22:57;;;;;;;;;;;18.50;99.90;;;;;;5076672;28;20309;-79
2022/08/21 06:25:24;;;;;;;;;;;18.60;99.90;;;;;;5076471;28;19935;-81
2022/08/21 06:27:50;;;;;;;;;;;18.60;99.90;;;;;;5076367;28;19916;-80
2022/08/21 06:30:16;;;;;;;;;;;18.60;99.90;;;;;;5076724;28;19930;-80
2022/08/21 06:32:41;;;;;;;;;;;18.70;99.90;;;;;;5076616;28;19946;-79
2022/08/21 06:35:07;;;;;;;;;;;18.80;99.90;;;;;;5077281;28;19912;-80
2022/08/21 06:37:33;;;;;;;;;;;18.80;99.90;;;;;;5076768;28;19909;-80
2022/08/21 06:39:58;;;;;;;;;;;18.70;99.90;;;;;;5076219;28;20314;-81
2022/08/21 06:42:24;;;;;;;;;;;18.80;99.90;;;;;;5076444;28;19915;-79
2022/08/21 06:44:49;;;;;;;;;;;18.70;99.90;;;;;;5058315;28;19915;-78
2022/08/21 06:47:15;;;;;;;;;;;18.70;99.90;;;;;;5076471;28;19921;-78
2022/08/21 06:49:41;;;;;;;;;;;18.90;99.90;;;;;;5075968;28;19915;-80
2022/08/21 06:52:10;;;;;;;;;;;18.80;99.90;;;;;;5076404;28;19958;-79
2022/08/21 06:54:36;;;;;;;;;;;18.90;99.90;;;;;;5076131;28;19908;-80
2022/08/21 06:57:01;;;;;;;;;;;18.90;99.90;;;;;;5075858;28;19931;-78
2022/08/21 06:59:27;;;;;;;;;;;19.00;99.90;;;;;;5075062;28;19912;-79
2022/08/21 07:01:52;;;;;;;;;;;18.70;99.90;;;;;;5075925;28;19908;-80
2022/08/21 07:04:19;;;;;;;;;;;18.60;99.90;;;;;;5075780;28;19909;-80
2022/08/21 07:06:45;;;;;;;;;;;18.80;99.90;;;;;;5076269;28;19908;-79
2022/08/21 07:09:11;;;;;;;;;;;18.80;99.90;;;;;;5076050;28;19913;-79
2022/08/21 07:11:37;;;;;;;;;;;19.10;99.90;;;;;;5057832;28;19909;-81
2022/08/21 07:14:03;;;;;;;;;;;19.50;99.90;;;;;;5075726;28;19909;-80
2022/08/21 07:16:29;;;;;;;;;;;19.60;99.90;;;;;;5075525;28;19916;-79
2022/08/21 07:18:54;;;;;;;;;;;19.80;99.90;;;;;;5075260;28;20007;-78
2022/08/21 07:21:20;;;;;;;;;;;20.00;99.90;;;;;;5075160;28;19954;-81
2022/08/21 07:23:48;;;;;;;;;;;20.00;99.90;;;;;;5075342;28;20380;-79
2022/08/21 07:26:15;;;;;;;;;;;19.80;99.90;;;;;;5075417;28;20002;-82
2022/08/21 07:28:41;;;;;;;;;;;19.40;99.90;;;;;;5075340;28;19912;-79
2022/08/21 07:31:08;;;;;;;;;;;19.30;99.90;;;;;;5075202;28;19995;-80
2022/08/21 07:33:34;;;;;;;;;;;19.10;99.90;;;;;;5075306;28;19947;-78
2022/08/21 07:36:00;;;;;;;;;;;19.30;99.90;;;;;;5057182;28;20006;-79
2022/08/21 07:38:26;;;;;;;;;;;19.30;99.90;;;;;;5075117;28;19995;-81
2022/08/21 07:40:54;;;;;;;;;;;19.50;99.90;;;;;;5075162;28;19908;-79
2022/08/21 07:43:21;;;;;;;;;;;19.80;99.90;;;;;;5074977;28;19909;-80
2022/08/21 07:45:47;;;;;;;;;;;20.00;99.90;;;;;;5056761;28;19944;-79
2022/08/21 07:48:13;;;;;;;;;;;20.40;99.90;;;;;;5074661;28;19927;-78
2022/08/21 07:50:39;;;;;;;;;;;20.70;99.90;;;;;;5074808;28;20283;-79
2022/08/21 07:53:05;;;;;;;;;;;20.80;99.90;;;;;;5075133;28;20323;-81
2022/08/21 07:55:30;;;;;;;;;;;21.20;99.90;;;;;;5076400;28;19913;-79
2022/08/21 07:57:56;;;;;;;;;;;21.30;99.90;;;;;;5074551;28;19935;-81
2022/08/21 08:00:23;;;;;;;;;;;21.20;99.90;;;;;;5074658;28;19916;-80
2022/08/21 08:02:50;;;;;;;;;;;21.30;99.90;;;;;;5074425;28;19919;-79
2022/08/21 08:05:17;;;;;;;;;;;20.90;99.90;;;;;;5074787;28;19930;-79
2022/08/21 08:07:42;;;;;;;;;;;21.10;99.90;;;;;;5074854;28;19912;-81
2022/08/21 08:10:08;;;;;;;;;;;20.80;99.90;;;;;;5074074;28;20257;-80
2022/08/21 08:12:39;;;;;;;;;;;20.90;99.90;;;;;;5074420;28;19908;-79
2022/08/21 08:15:06;;;;;;;;;;;21.10;99.90;;;;;;5074591;28;19912;-81
2022/08/21 08:17:32;;;;;;;;;;;21.70;99.90;;;;;;5074121;28;20330;-82
2022/08/21 08:19:59;;;;;;;;;;;22.40;99.90;;;;;;5074380;28;19943;-80
2022/08/21 08:22:24;;;;;;;;;;;22.90;99.90;;;;;;5074297;28;19909;-80
2022/08/21 08:24:51;;;;;;;;;;;23.70;99.70;;;;;;5056535;28;20356;-82
2022/08/21 08:27:17;;;;;;;;;;;23.70;98.40;;;;;;5074318;28;19912;-79
2022/08/21 08:29:43;;;;;;;;;;;23.50;96.70;;;;;;5074396;28;19908;-80
2022/08/21 08:32:09;;;;;;;;;;;23.10;99.10;;;;;;5074412;28;19920;-82
2022/08/21 08:34:35;;;;;;;;;;;22.80;99.90;;;;;;5074434;28;19934;-80
2022/08/21 08:37:00;;;;;;;;;;;22.80;99.30;;;;;;5074277;28;19940;-79
2022/08/21 08:39:27;;;;;;;;;;;22.70;99.90;;;;;;5074532;28;19916;-80
2022/08/21 08:41:57;;;;;;;;;;;22.70;99.90;;;;;;5074221;28;19932;-79
2022/08/21 08:44:23;;;;;;;;;;;22.40;99.90;;;;;;5074176;28;19948;-79
2022/08/21 08:46:50;;;;;;;;;;;22.60;99.90;;;;;;5073811;28;20009;-79
2022/08/21 08:49:22;;;;;;;;;;;22.70;99.90;;;;;;5074448;28;19912;-80
2022/08/21 08:51:54;;;;;;;;;;;23.00;99.90;;;;;;5074010;28;20388;-81
2022/08/21 08:54:33;;;;;;;;;;;23.20;99.90;;;;;;5073377;28;20202;-79
2022/08/21 08:57:00;;;;;;;;;;;23.10;99.90;;;;;;5074032;28;19913;-80
2022/08/21 08:59:27;;;;;;;;;;;23.10;99.90;;;;;;5073799;28;20387;-81
2022/08/21 09:01:53;;;;;;;;;;;23.10;99.90;;;;;;5074516;28;19912;-81
2022/08/21 09:04:22;;;;;;;;;;;23.10;99.90;;;;;;5073844;28;20288;-80
2022/08/21 09:06:58;;;;;;;;;;;23.60;99.90;;;;;;5073748;28;19995;-80
2022/08/21 09:09:44;;;;;;;;;;;23.70;98.80;;;;;;5073877;28;19912;-80
2022/08/21 09:12:16;;;;;;;;;;;23.70;99.80;;;;;;5074357;28;19940;-81
2022/08/21 09:14:57;;;;;;;;;;;23.70;98.60;;;;;;5074055;28;20311;-80
2022/08/21 09:17:26;;;;;;;;;;;23.50;98.80;;;;;;5074158;28;20003;-81
2022/08/21 09:20:06;;;;;;;;;;;23.50;98.30;;;;;;5073651;28;19919;-80
2022/08/21 09:22:32;;;;;;;;;;;23.20;99.10;;;;;;5074785;28;19908;-80
2022/08/21 09:25:27;;;;;;;;;;;23.20;99.90;;;;;;5077540;28;19924;-81
2022/08/21 09:27:53;;;;;;;;;;;23.60;98.80;;;;;;5055138;28;20029;-80
2022/08/21 09:30:23;;;;;;;;;;;23.70;98.00;;;;;;5077261;28;19967;-79
2022/08/21 09:32:48;;;;;;;;;;;24.00;97.30;;;;;;5077395;28;19919;-79
2022/08/21 09:35:19;;;;;;;;;;;24.60;96.20;;;;;;5077389;28;19908;-81
2022/08/21 09:37:53;;;;;;;;;;;25.10;95.10;;;;;;5077657;28;19908;-79
2022/08/21 09:40:39;;;;;;;;;;;24.70;93.90;;;;;;5077120;28;19913;-82
2022/08/21 09:43:10;;;;;;;;;;;24.40;94.30;;;;;;5078017;28;19908;-82
2022/08/21 09:45:36;;;;;;;;;;;24.90;94.50;;;;;;5077137;28;19977;-82
2022/08/21 09:48:11;;;;;;;;;;;25.00;92.50;;;;;;5077717;28;20381;-82
2022/08/21 09:50:38;;;;;;;;;;;24.50;93.20;;;;;;5077312;28;20425;-80
2022/08/21 09:53:04;;;;;;;;;;;24.20;94.40;;;;;;5077189;28;19908;-80
2022/08/21 09:58:19;;;;;;;;;;;23.10;96.10;;;;;;5077354;28;19916;-81
2022/08/21 10:00:45;;;;;;;;;;;22.60;97.90;;;;;;5077274;28;19915;-79
2022/08/21 10:03:16;;;;;;;;;;;22.00;99.90;;;;;;5077062;28;19909;-81
2022/08/21 10:06:05;;;;;;;;;;;21.40;99.90;;;;;;5077511;28;19909;-80
2022/08/21 10:08:32;;;;;;;;;;;21.60;99.90;;;;;;5058666;28;19955;-80
2022/08/21 10:11:02;;;;;;;;;;;22.20;99.90;;;;;;5076975;28;20372;-80
2022/08/21 10:13:46;;;;;;;;;;;22.70;99.90;;;;;;5077352;28;20379;-80
2022/08/21 10:16:29;;;;;;;;;;;23.00;99.90;;;;;;5076823;28;20292;-81
2022/08/21 10:19:13;;;;;;;;;;;22.90;99.90;;;;;;5077375;28;19909;-80
2022/08/21 10:21:57;;;;;;;;;;;22.60;99.90;;;;;;5076825;28;19919;-79
2022/08/21 10:24:23;;;;;;;;;;;22.80;99.90;;;;;;5077154;28;19908;-82
2022/08/21 10:27:04;;;;;;;;;;;23.00;99.90;;;;;;5076447;28;19999;-80
2022/08/21 10:29:38;;;;;;;;;;;23.30;99.90;;;;;;5076616;28;20019;-81
2022/08/21 10:32:10;;;;;;;;;;;23.10;99.90;;;;;;5076394;28;19909;-81
2022/08/21 10:34:42;;;;;;;;;;;23.00;99.90;;;;;;5076546;28;19916;-80
2022/08/21 10:37:13;;;;;;;;;;;22.60;99.90;;;;;;5076614;28;19993;-81
2022/08/21 10:39:50;;;;;;;;;;;22.90;99.90;;;;;;5076400;28;19912;-81
2022/08/21 10:42:15;;;;;;;;;;;22.80;99.90;;;;;;5076594;28;19909;-79
2022/08/21 10:44:59;;;;;;;;;;;22.90;99.90;;;;;;5076316;28;19915;-81
2022/08/21 10:47:25;;;;;;;;;;;23.00;99.90;;;;;;5076207;28;19920;-81
2022/08/21 10:50:03;;;;;;;;;;;22.90;99.90;;;;;;5076944;28;20288;-81
2022/08/21 10:52:36;;;;;;;;;;;23.10;99.90;;;;;;5076470;28;19912;-80
2022/08/21 10:55:11;;;;;;;;;;;23.40;99.90;;;;;;5076558;28;20007;-82
2022/08/21 10:57:42;;;;;;;;;;;23.30;99.90;;;;;;5076711;28;19908;-80
2022/08/21 11:00:11;;;;;;;;;;;23.30;99.90;;;;;;5075997;28;19960;-80
2022/08/21 11:02:47;;;;;;;;;;;22.80;99.90;;;;;;5076542;28;20284;-81
2022/08/21 11:05:19;;;;;;;;;;;22.70;99.90;;;;;;5076082;28;19939;-80
2022/08/21 11:07:57;;;;;;;;;;;22.40;99.90;;;;;;5076026;28;19960;-81
2022/08/21 11:10:25;;;;;;;;;;;22.40;99.90;;;;;;5058239;28;19991;-80
2022/08/21 11:13:17;;;;;;;;;;;22.30;99.90;;;;;;5076577;28;19954;-81
2022/08/21 11:16:11;;;;;;;;;;;22.30;99.90;;;;;;5070854;28;20411;-78
2022/08/21 11:18:39;;;;;;;;;;;22.20;99.90;;;;;;5054071;28;19908;-78
2022/08/21 11:21:19;;;;;;;;;;;21.70;99.90;;;;;;5076036;28;19913;-78
2022/08/21 11:23:48;;;;;;;;;;;20.80;99.90;;;;;;5074813;28;19909;-77
2022/08/21 11:26:17;;;;;;;;;;;20.30;99.90;;;;;;5074609;28;19908;-77
2022/08/21 11:28:50;;;;;;;;;;;20.10;99.90;;;;;;5074456;28;20010;-79
2022/08/21 11:31:19;;;;;;;;;;;19.80;99.90;;;;;;5074707;28;20003;-79
2022/08/21 11:33:59;;;;;;;;;;;19.80;99.90;;;;;;5074539;28;19908;-80
2022/08/21 11:36:25;;;;;;;;;;;19.90;99.90;;;;;;5074452;28;19915;-79
2022/08/21 11:39:00;;;;;;;;;;;20.00;99.90;;;;;;5056412;28;20394;-79
2022/08/21 11:41:28;;;;;;;;;;;20.40;99.90;;;;;;5074486;28;20295;-80
2022/08/21 11:43:59;;;;;;;;;;;20.50;99.90;;;;;;5074233;28;19913;-79
2022/08/21 11:46:30;;;;;;;;;;;20.60;99.90;;;;;;5073495;28;20330;-77
2022/08/21 11:49:02;;;;;;;;;;;20.90;99.90;;;;;;5074890;28;19938;-80
2022/08/21 11:51:32;;;;;;;;;;;20.70;99.90;;;;;;5074139;28;19908;-79
2022/08/21 11:54:13;;;;;;;;;;;20.50;99.90;;;;;;5074128;28;19908;-79
2022/08/21 11:56:42;;;;;;;;;;;20.40;99.90;;;;;;5074032;28;19913;-79
2022/08/21 11:59:11;;;;;;;;;;;20.50;99.90;;;;;;5074011;28;19936;-79
2022/08/21 12:01:40;;;;;;;;;;;20.50;99.90;;;;;;5074241;28;19915;-79
2022/08/21 12:04:16;;;;;;;;;;;20.50;99.90;;;;;;5073932;28;19919;-78
2022/08/21 12:06:42;;;;;;;;;;;20.70;99.90;;;;;;5074137;28;19908;-78
2022/08/21 12:09:28;;;;;;;;;;;20.90;99.90;;;;;;5073767;28;19913;-78
2022/08/21 12:12:02;;;;;;;;;;;21.70;99.90;;;;;;5072981;28;20384;-78
2022/08/21 12:14:43;;;;;;;;;;;21.70;99.90;;;;;;5073820;28;20285;-78
2022/08/21 12:17:16;;;;;;;;;;;20.80;99.90;;;;;;5073881;28;19912;-77
2022/08/21 12:19:42;;;;;;;;;;;20.40;99.90;;;;;;5073790;28;19948;-79
2022/08/21 12:22:10;;;;;;;;;;;20.20;99.90;;;;;;5073707;28;20339;-78
2022/08/21 12:24:41;;;;;;;;;;;20.30;99.90;;;;;;5073663;28;19909;-78
2022/08/21 12:27:20;;;;;;;;;;;20.80;99.90;;;;;;5073601;28;19915;-78
2022/08/21 12:29:47;;;;;;;;;;;20.80;99.90;;;;;;5073705;28;20003;-78
2022/08/21 12:32:13;;;;;;;;;;;21.40;99.90;;;;;;5073645;28;19916;-78
2022/08/21 12:34:45;;;;;;;;;;;21.50;99.90;;;;;;5073759;28;19909;-79
2022/08/21 12:37:17;;;;;;;;;;;21.60;99.90;;;;;;5073735;28;20370;-79
2022/08/21 12:39:44;;;;;;;;;;;21.80;99.90;;;;;;5055489;28;20384;-79
2022/08/21 12:42:33;;;;;;;;;;;22.40;99.90;;;;;;5073510;28;19912;-79
2022/08/21 12:45:02;;;;;;;;;;;22.60;99.90;;;;;;5055418;28;19917;-79
2022/08/21 12:47:27;;;;;;;;;;;22.60;99.90;;;;;;5073246;28;19978;-80
2022/08/21 12:49:53;;;;;;;;;;;23.10;99.90;;;;;;5074025;28;19909;-80
2022/08/21 12:52:36;;;;;;;;;;;23.30;99.90;;;;;;5073431;28;19962;-79
2022/08/21 12:55:02;;;;;;;;;;;24.00;99.90;;;;;;5073564;28;19936;-80
2022/08/21 12:57:29;;;;;;;;;;;25.80;99.90;;;;;;5076470;28;19987;-81
2022/08/21 12:59:59;;;;;;;;;;;27.60;99.90;;;;;;5077486;28;19915;-82
2022/08/21 13:02:28;;;;;;;;;;;28.30;99.90;;;;;;5077684;28;20284;-79
2022/08/21 13:04:56;;;;;;;;;;;27.90;99.90;;;;;;5077436;28;19909;-79
2022/08/21 13:07:33;;;;;;;;;;;27.10;99.90;;;;;;5077544;28;19912;-79
2022/08/21 13:10:01;;;;;;;;;;;26.70;99.90;;;;;;5077458;28;19919;-81
2022/08/21 13:12:28;;;;;;;;;;;26.50;99.90;;;;;;5077668;28;19909;-81
2022/08/21 13:14:56;;;;;;;;;;;26.40;99.90;;;;;;5077243;28;19931;-80
2022/08/21 13:17:23;;;;;;;;;;;26.20;99.90;;;;;;5077127;28;19916;-81
2022/08/21 13:20:00;;;;;;;;;;;25.70;99.90;;;;;;5077042;28;19916;-81
2022/08/21 13:22:26;;;;;;;;;;;24.90;99.90;;;;;;5077292;28;19909;-80
2022/08/21 13:24:51;;;;;;;;;;;24.00;99.90;;;;;;5077160;28;19932;-81
2022/08/21 13:27:21;;;;;;;;;;;23.60;99.90;;;;;;5077172;28;20365;-80
2022/08/21 13:29:47;;;;;;;;;;;23.00;99.90;;;;;;5076838;28;20020;-80
2022/08/21 13:32:19;;;;;;;;;;;22.50;99.90;;;;;;5076902;28;20385;-80
2022/08/21 13:34:45;;;;;;;;;;;22.30;99.90;;;;;;5058659;28;19932;-79
2022/08/21 13:37:11;;;;;;;;;;;21.80;99.90;;;;;;5077299;28;19920;-81
2022/08/21 13:39:38;;;;;;;;;;;21.50;99.90;;;;;;5076983;28;19970;-79
2022/08/21 13:42:05;;;;;;;;;;;21.30;99.90;;;;;;5077049;28;19908;-81
2022/08/21 13:44:31;;;;;;;;;;;21.40;99.90;;;;;;5076839;28;19943;-80
2022/08/21 13:46:59;;;;;;;;;;;21.70;99.90;;;;;;5076927;28;19964;-81
2022/08/21 13:49:36;;;;;;;;;;;21.80;99.90;;;;;;5077969;28;20280;-80
2022/08/21 13:52:02;;;;;;;;;;;21.90;99.90;;;;;;5078066;28;19908;-81
2022/08/21 13:54:35;;;;;;;;;;;22.10;99.90;;;;;;5077260;28;19916;-80
2022/08/21 13:57:01;;;;;;;;;;;22.10;99.90;;;;;;5077346;28;19909;-78
2022/08/21 13:59:28;;;;;;;;;;;22.70;99.90;;;;;;5077210;28;19908;-81
2022/08/21 14:02:07;;;;;;;;;;;23.20;99.90;;;;;;5077123;28;20007;-79
2022/08/21 14:04:34;;;;;;;;;;;23.60;99.90;;;;;;5076926;28;19938;-78
2022/08/21 14:07:00;;;;;;;;;;;23.50;99.90;;;;;;5077057;28;19908;-80
2022/08/21 14:09:41;;;;;;;;;;;23.80;99.90;;;;;;5076367;28;19919;-78
2022/08/21 14:12:25;;;;;;;;;;;23.70;99.90;;;;;;5076584;28;19916;-78
2022/08/21 14:14:53;;;;;;;;;;;23.70;99.90;;;;;;5077043;28;19954;-79
2022/08/21 14:17:33;;;;;;;;;;;23.70;99.90;;;;;;5076919;28;19912;-78
2022/08/21 14:19:58;;;;;;;;;;;23.50;99.90;;;;;;5076709;28;19919;-81
2022/08/21 14:22:30;;;;;;;;;;;23.10;99.90;;;;;;5058652;28;20357;-81
2022/08/21 14:25:01;;;;;;;;;;;22.90;99.90;;;;;;5058534;28;20253;-80